Time;durP1;ratioP1;P1;durP2;ratioP2;P2;SDS_P1;SDS_P2;PMS_P1;PMS_P2;Temp;Humidity;BMP_temperature;BMP_pressure;BME280_temperature;BME280_humidity;BME280_pressure;Samples;Min_cycle;Max_cycle;Signal;HPM_P1;HPM_P2
2022/03/17 00:02:18;;;;;;;54.63;26.33;;;3.70;1.00;;;;;;5053661;28;20193;-90
2022/03/17 00:04:45;;;;;;;55.67;26.57;;;3.70;34.10;;;;;;5053297;28;20303;-91
2022/03/17 00:07:12;;;;;;;56.67;26.30;;;3.70;99.90;;;;;;5053562;28;20656;-89
2022/03/17 00:09:40;;;;;;;57.13;27.23;;;3.80;1.00;;;;;;5053528;28;20280;-90
2022/03/17 00:12:08;;;;;;;56.70;28.30;;;3.80;1.00;;;;;;5052738;28;20250;-90
2022/03/17 00:14:36;;;;;;;52.90;23.93;;;3.90;47.80;;;;;;5055699;28;20666;-90
2022/03/17 00:17:04;;;;;;;55.47;25.00;;;3.90;98.40;;;;;;5056675;28;20246;-89
2022/03/17 00:19:31;;;;;;;48.80;21.07;;;4.00;44.10;;;;;;5057270;28;20634;-89
2022/03/17 00:21:59;;;;;;;49.50;22.10;;;4.00;99.90;;;;;;5056786;28;20243;-90
2022/03/17 00:24:26;;;;;;;60.57;29.20;;;4.00;1.00;;;;;;5057054;28;20226;-89
2022/03/17 00:26:53;;;;;;;56.07;27.30;;;4.00;1.00;;;;;;5056915;28;20279;-90
2022/03/17 00:29:20;;;;;;;55.27;26.37;;;4.00;1.00;;;;;;5056815;28;20206;-89
2022/03/17 00:31:48;;;;;;;54.10;26.07;;;4.00;1.00;;;;;;5056752;28;20604;-89
2022/03/17 00:34:15;;;;;;;60.70;28.63;;;4.10;1.00;;;;;;5056910;28;20200;-89
2022/03/17 00:36:42;;;;;;;55.77;25.17;;;4.10;99.90;;;;;;5057147;28;20202;-89
2022/03/17 00:39:09;;;;;;;57.93;27.80;;;4.00;99.90;;;;;;5056937;28;20193;-89
2022/03/17 00:41:37;;;;;;;70.33;31.87;;;4.00;99.90;;;;;;5056543;28;20213;-89
2022/03/17 00:44:04;;;;;;;68.40;31.40;;;3.90;99.90;;;;;;5056786;28;20188;-90
2022/03/17 00:46:31;;;;;;;63.80;31.17;;;3.90;99.90;;;;;;5056499;28;20212;-89
2022/03/17 00:49:00;;;;;;;66.73;31.77;;;3.80;99.90;;;;;;5056160;28;20198;-89
2022/03/17 00:51:27;;;;;;;69.93;32.10;;;3.80;6.80;;;;;;5056554;28;20194;-89
2022/03/17 00:53:54;;;;;;;74.93;30.40;;;3.80;99.90;;;;;;5056828;28;20198;-90
2022/03/17 00:56:21;;;;;;;65.70;30.80;;;3.70;99.90;;;;;;5056527;28;20250;-89
2022/03/17 00:58:48;;;;;;;67.93;31.07;;;3.70;1.00;;;;;;5056520;28;20208;-89
2022/03/17 01:01:16;;;;;;;73.20;33.53;;;3.60;1.00;;;;;;5056630;28;20192;-88
2022/03/17 01:03:44;;;;;;;76.40;35.00;;;3.60;1.00;;;;;;5056442;28;20706;-89
2022/03/17 01:06:12;;;;;;;69.63;33.50;;;3.50;1.00;;;;;;5055877;28;20227;-89
2022/03/17 01:08:39;;;;;;;74.03;34.07;;;3.60;1.00;;;;;;5055581;28;20186;-90
2022/03/17 01:11:07;;;;;;;83.30;34.87;;;3.50;1.00;;;;;;5056194;28;20214;-90
2022/03/17 01:13:34;;;;;;;73.40;31.30;;;3.50;1.00;;;;;;5056119;28;20242;-89
2022/03/17 01:16:01;;;;;;;75.77;34.80;;;3.50;1.00;;;;;;5055839;28;20577;-88
2022/03/17 01:18:28;;;;;;;65.80;31.67;;;3.40;1.00;;;;;;5055202;28;20197;-87
2022/03/17 01:20:56;;;;;;;74.33;34.43;;;3.40;1.00;;;;;;5055695;28;20197;-89
2022/03/17 01:23:25;;;;;;;78.47;35.70;;;3.30;1.00;;;;;;5055003;28;20263;-88
2022/03/17 01:25:52;;;;;;;84.43;35.13;;;3.30;1.00;;;;;;5055047;28;20225;-89
2022/03/17 01:28:19;;;;;;;83.50;35.93;;;3.30;1.00;;;;;;5055581;28;20188;-89
2022/03/17 01:30:46;;;;;;;79.90;36.37;;;3.30;1.00;;;;;;5055703;28;20195;-89
2022/03/17 01:33:13;;;;;;;;;;;3.30;1.00;;;;;;5053675;28;20702;-89
2022/03/17 01:35:40;;;;;;;;;;;3.20;1.00;;;;;;5053552;28;20690;-89
2022/03/17 01:38:06;;;;;;;;;;;3.20;1.00;;;;;;5055447;28;20181;-89
2022/03/17 01:40:35;;;;;;;;;;;3.20;99.90;;;;;;5055708;28;20361;-89
2022/03/17 01:43:02;;;;;;;;;;;3.20;99.90;;;;;;5054785;28;20745;-89
2022/03/17 01:45:29;;;;;;;;;;;3.10;99.90;;;;;;5055209;28;20694;-89
2022/03/17 01:47:57;;;;;;;;;;;3.10;99.90;;;;;;5055283;28;25067;-88
2022/03/17 01:50:24;;;;;;;;;;;3.10;99.90;;;;;;5055225;28;20308;-89
2022/03/17 01:52:51;;;;;;;;;;;3.00;99.90;;;;;;5055016;28;20347;-88
2022/03/17 01:55:18;;;;;;;;;;;3.00;1.00;;;;;;5055476;28;25065;-89
2022/03/17 01:57:47;;;;;;;;;;;3.00;1.00;;;;;;5055340;28;20117;-88
2022/03/17 02:00:17;;;;;;;;;;;2.90;1.00;;;;;;5055121;28;20232;-89
2022/03/17 02:02:44;;;;;;;;;;;2.80;1.00;;;;;;5055144;28;20040;-88
2022/03/17 02:05:11;;;;;;;80.23;37.13;;;2.70;99.90;;;;;;5054509;28;20202;-89
2022/03/17 02:07:39;;;;;;;80.13;38.50;;;2.60;99.90;;;;;;5054605;28;20204;-89
2022/03/17 02:10:07;;;;;;;98.20;41.33;;;2.60;99.90;;;;;;5054234;28;20189;-89
2022/03/17 02:15:20;;;;;;;84.67;37.23;;;2.50;1.00;;;;;;5054639;28;20651;-90
2022/03/17 02:17:47;;;;;;;98.13;41.77;;;2.60;1.00;;;;;;5054280;28;20258;-88
2022/03/17 02:20:16;;;;;;;101.40;42.60;;;2.60;99.90;;;;;;5054712;28;20254;-88
2022/03/17 02:22:45;;;;;;;96.60;42.17;;;2.60;1.00;;;;;;5053867;28;20188;-89
2022/03/17 02:27:59;;;;;;;97.17;42.17;;;2.50;1.00;;;;;;5054320;28;20254;-87
2022/03/17 02:30:27;;;;;;;111.03;43.63;;;2.60;99.90;;;;;;5054395;28;20279;-89
2022/03/17 02:33:00;;;;;;;98.33;41.77;;;2.60;1.00;;;;;;5053742;28;20207;-87
2022/03/17 02:35:28;;;;;;;88.53;39.73;;;2.60;1.00;;;;;;5053391;28;20192;-87
2022/03/17 02:37:56;;;;;;;104.00;43.17;;;2.60;99.90;;;;;;5053636;28;20192;-88
2022/03/17 02:40:26;;;;;;;104.53;43.77;;;2.70;93.50;;;;;;5054065;28;20552;-87
2022/03/17 02:42:53;;;;;;;99.70;40.80;;;2.60;99.90;;;;;;5053867;28;20287;-88
2022/03/17 02:45:20;;;;;;;101.17;39.27;;;2.60;99.90;;;;;;5054274;28;20251;-88
2022/03/17 02:47:47;;;;;;;101.40;43.00;;;2.60;99.90;;;;;;5053915;28;20242;-87
2022/03/17 02:50:15;;;;;;;101.77;41.47;;;2.50;99.90;;;;;;5053531;28;20219;-88
2022/03/17 02:52:42;;;;;;;99.33;43.33;;;2.50;1.00;;;;;;5053346;28;20244;-86
2022/03/17 02:55:11;;;;;;;104.27;42.73;;;2.50;1.00;;;;;;5053365;28;20200;-88
2022/03/17 02:57:40;;;;;;;100.63;42.57;;;2.50;1.00;;;;;;5053246;28;20197;-87
2022/03/17 03:00:10;;;;;;;104.17;41.27;;;2.50;99.90;;;;;;5046880;28;20662;-88
2022/03/17 03:02:38;;;;;;;102.47;45.10;;;2.50;99.90;;;;;;5052706;28;20193;-86
2022/03/17 03:05:05;;;;;;;97.97;40.60;;;2.40;99.90;;;;;;5053157;28;20254;-89
2022/03/17 03:07:32;;;;;;;102.70;42.67;;;2.40;10.10;;;;;;5052978;28;20290;-88
2022/03/17 03:09:59;;;;;;;105.93;44.23;;;2.40;1.00;;;;;;5053625;28;20243;-88
2022/03/17 03:12:26;;;;;;;106.63;45.57;;;2.40;1.00;;;;;;5053461;28;20193;-90
2022/03/17 03:14:55;;;;;;;109.43;47.67;;;2.30;1.00;;;;;;5053851;28;20200;-89
2022/03/17 03:17:23;;;;;;;99.37;42.43;;;2.30;1.00;;;;;;5053885;28;20644;-88
2022/03/17 03:19:51;;;;;;;96.47;42.37;;;2.30;1.00;;;;;;5053331;28;20200;-88
2022/03/17 03:22:18;;;;;;;104.13;44.40;;;2.30;99.90;;;;;;5053062;28;20206;-88
2022/03/17 03:24:46;;;;;;;114.53;49.50;;;2.30;99.90;;;;;;5052535;28;20762;-87
2022/03/17 03:27:13;;;;;;;99.73;43.33;;;2.30;99.90;;;;;;5052903;28;20253;-88
2022/03/17 03:29:40;;;;;;;105.57;43.77;;;2.30;99.90;;;;;;5052898;28;20193;-87
2022/03/17 03:32:09;;;;;;;100.13;43.63;;;2.30;99.90;;;;;;5052653;28;20269;-88
2022/03/17 03:34:36;;;;;;;105.70;42.43;;;2.20;99.90;;;;;;5052873;28;20196;-88
2022/03/17 03:39:49;;;;;;;102.97;42.73;;;2.20;99.90;;;;;;5052649;28;20179;-89
2022/03/17 03:42:16;;;;;;;111.10;45.67;;;2.20;99.90;;;;;;5052750;28;20192;-88
2022/03/17 03:44:43;;;;;;;100.07;43.33;;;2.20;99.90;;;;;;5053158;28;20197;-87
2022/03/17 03:47:13;;;;;;;116.43;45.23;;;2.20;99.90;;;;;;5052399;28;20684;-85
2022/03/17 03:49:43;;;;;;;108.17;45.60;;;2.20;99.90;;;;;;5052524;28;20246;-88
2022/03/17 03:52:11;;;;;;;109.77;44.43;;;2.20;99.90;;;;;;5052838;28;20215;-87
2022/03/17 03:54:39;;;;;;;103.33;42.30;;;2.20;99.90;;;;;;5052708;28;20610;-87
2022/03/17 03:57:07;;;;;;;103.50;42.77;;;2.20;99.90;;;;;;5052304;28;20259;-88
2022/03/17 03:59:35;;;;;;;106.40;42.97;;;2.20;99.90;;;;;;5052091;28;20192;-88
2022/03/17 04:02:07;;;;;;;104.73;43.17;;;2.20;99.90;;;;;;5052405;28;20312;-88
2022/03/17 04:04:38;;;;;;;101.33;43.00;;;2.20;99.90;;;;;;5052436;28;20258;-87
2022/03/17 04:07:08;;;;;;;111.97;42.40;;;2.20;99.90;;;;;;5052457;28;20647;-87
2022/03/17 04:09:39;;;;;;;110.17;44.90;;;2.20;99.90;;;;;;5051806;28;20518;-87
2022/03/17 04:12:08;;;;;;;109.97;45.33;;;2.30;99.90;;;;;;5052801;28;20276;-86
2022/03/17 04:14:35;;;;;;;114.47;45.30;;;2.20;99.90;;;;;;5052528;28;20192;-89
2022/03/17 04:17:02;;;;;;;111.63;45.37;;;2.20;99.90;;;;;;5051974;28;20572;-87
2022/03/17 04:19:29;;;;;;;114.53;44.73;;;2.20;99.90;;;;;;5052220;28;20646;-88
2022/03/17 04:22:01;;;;;;;111.47;44.90;;;2.30;99.90;;;;;;5052258;28;20197;-86
2022/03/17 04:24:28;;;;;;;113.10;44.17;;;2.20;81.40;;;;;;5052984;28;20723;-87
2022/03/17 04:26:55;;;;;;;116.27;46.90;;;2.20;64.40;;;;;;5052153;28;20681;-86
2022/03/17 04:29:22;;;;;;;122.57;46.87;;;2.20;69.40;;;;;;5052860;28;20196;-88
2022/03/17 04:31:49;;;;;;;118.90;47.47;;;2.20;43.80;;;;;;5052744;28;20199;-87
2022/03/17 04:34:16;;;;;;;114.40;47.47;;;2.20;48.80;;;;;;5052721;28;20201;-86
2022/03/17 04:36:43;;;;;;;120.67;46.43;;;2.20;73.80;;;;;;5052724;28;20223;-87
2022/03/17 04:39:11;;;;;;;113.73;45.87;;;2.20;99.90;;;;;;5052460;28;20581;-87
2022/03/17 04:41:39;;;;;;;112.67;46.03;;;2.10;70.90;;;;;;5052290;28;20193;-87
2022/03/17 04:44:07;;;;;;;126.17;49.77;;;2.10;93.20;;;;;;5052453;28;20193;-87
2022/03/17 04:46:34;;;;;;;109.13;45.40;;;2.10;99.90;;;;;;5052087;28;20228;-86
2022/03/17 04:49:01;;;;;;;111.60;45.17;;;2.10;99.90;;;;;;5052033;28;20203;-86
2022/03/17 04:51:28;;;;;;;122.50;48.50;;;2.10;99.90;;;;;;5051923;28;20188;-86
2022/03/17 04:53:55;;;;;;;113.17;44.40;;;2.10;99.90;;;;;;5052135;28;20189;-86
2022/03/17 04:56:23;;;;;;;123.93;48.87;;;2.10;99.90;;;;;;5052125;28;20283;-86
2022/03/17 04:58:51;;;;;;;124.67;48.43;;;2.10;99.90;;;;;;5052260;28;20582;-85
2022/03/17 05:01:18;;;;;;;113.43;45.20;;;2.10;99.90;;;;;;5063327;28;20200;-88
2022/03/17 05:03:45;;;;;;;117.83;46.83;;;2.10;99.90;;;;;;5055978;28;20197;-88
2022/03/17 05:06:13;;;;;;;123.17;46.80;;;2.10;99.90;;;;;;5055668;28;20224;-87
2022/03/17 05:08:41;;;;;;;115.40;46.20;;;2.10;99.90;;;;;;5055455;28;20193;-87
2022/03/17 05:11:18;;;;;;;123.07;48.37;;;2.10;1.00;;;;;;5059482;28;20192;-91
2022/03/17 05:13:48;;;;;;;122.47;48.77;;;2.10;1.00;;;;;;5072787;28;20274;-85
2022/03/17 05:16:16;;;;;;;112.77;43.43;;;2.20;1.00;;;;;;5057492;28;20205;-88
2022/03/17 05:18:43;;;;;;;123.13;46.20;;;2.20;1.00;;;;;;5055299;28;20207;-87
2022/03/17 05:21:10;;;;;;;132.83;50.80;;;2.20;98.60;;;;;;5057109;28;20703;-87
2022/03/17 05:23:38;;;;;;;123.70;49.03;;;2.20;1.00;;;;;;5057531;28;20220;-84
2022/03/17 05:26:08;;;;;;;123.13;48.57;;;2.20;10.30;;;;;;5056297;28;20196;-85
2022/03/17 05:28:35;;;;;;;133.57;51.27;;;2.30;42.90;;;;;;5060739;28;20189;-84
2022/03/17 05:31:03;;;;;;;127.53;48.97;;;2.30;37.20;;;;;;5059302;28;20196;-87
2022/03/17 05:33:30;;;;;;;130.93;50.67;;;2.40;28.60;;;;;;5057937;28;20284;-87
2022/03/17 05:35:58;;;;;;;127.83;49.40;;;2.40;47.00;;;;;;5060322;28;20192;-87
2022/03/17 05:38:25;;;;;;;126.50;51.97;;;2.50;99.90;;;;;;5059976;28;20169;-86
2022/03/17 05:40:52;;;;;;;114.53;48.83;;;2.50;99.90;;;;;;5060465;28;20200;-89
2022/03/17 05:43:19;;;;;;;125.83;50.30;;;2.50;99.90;;;;;;5057375;28;20193;-85
2022/03/17 05:45:46;;;;;;;124.93;49.27;;;2.60;86.30;;;;;;5058858;28;20551;-87
2022/03/17 05:48:25;;;;;;;125.60;50.90;;;2.70;1.00;;;;;;5056956;28;20685;-89
2022/03/17 05:50:59;;;;;;;131.47;53.27;;;2.70;1.00;;;;;;5062132;28;20181;-87
2022/03/17 05:53:26;;;;;;;128.93;51.87;;;2.80;1.00;;;;;;5065123;28;20404;-86
2022/03/17 05:55:53;;;;;;;131.80;54.70;;;2.80;1.00;;;;;;5068337;28;20533;-87
2022/03/17 05:58:21;;;;;;;134.47;52.43;;;2.80;1.00;;;;;;5061302;28;20188;-87
2022/03/17 06:00:48;;;;;;;135.17;53.23;;;2.80;1.00;;;;;;5064075;28;20199;-88
2022/03/17 06:03:23;;;;;;;116.83;44.63;;;2.80;1.00;;;;;;5062485;28;20200;-89
2022/03/17 06:05:50;;;;;;;122.53;49.60;;;2.70;1.00;;;;;;5059521;28;20195;-88
2022/03/17 06:08:17;;;;;;;125.33;47.97;;;2.70;1.00;;;;;;5063312;28;20239;-89
2022/03/17 06:10:48;;;;;;;128.33;48.60;;;2.60;1.00;;;;;;5044135;28;20626;-91
2022/03/17 06:13:25;;;;;;;119.90;49.07;;;2.70;1.00;;;;;;5053097;28;20173;-87
2022/03/17 06:15:52;;;;;;;119.93;49.10;;;2.70;1.00;;;;;;5065425;28;20202;-88
2022/03/17 06:18:21;;;;;;;127.80;50.37;;;2.70;1.00;;;;;;5059755;28;20200;-90
2022/03/17 06:20:48;;;;;;;126.37;52.83;;;2.70;1.00;;;;;;5054777;28;20201;-86
2022/03/17 06:23:15;;;;;;;128.63;52.90;;;2.70;1.00;;;;;;5058298;28;20196;-88
2022/03/17 06:25:42;;;;;;;130.93;54.07;;;2.70;1.00;;;;;;5051136;28;20208;-88
2022/03/17 06:28:10;;;;;;;130.13;51.90;;;2.70;1.00;;;;;;5038061;28;20225;-86
2022/03/17 06:30:37;;;;;;;131.70;54.70;;;2.70;1.00;;;;;;5054307;28;20616;-87
2022/03/17 06:33:06;;;;;;;123.27;51.27;;;2.80;1.00;;;;;;5051454;28;20236;-87
2022/03/17 06:35:35;;;;;;;124.17;52.80;;;2.80;1.00;;;;;;5055834;28;20200;-87
2022/03/17 06:38:04;;;;;;;124.70;51.47;;;2.80;1.00;;;;;;5057024;28;20222;-88
2022/03/17 06:40:32;;;;;;;127.60;51.63;;;2.90;1.00;;;;;;5055960;28;20200;-86
2022/03/17 06:42:59;;;;;;;140.30;56.83;;;2.90;1.00;;;;;;5054222;28;20203;-86
2022/03/17 06:45:27;;;;;;;131.87;51.97;;;2.90;1.00;;;;;;5056102;28;20201;-87
2022/03/17 06:47:57;;;;;;;133.63;55.17;;;2.90;1.00;;;;;;5058439;28;20693;-88
2022/03/17 06:50:25;;;;;;;128.33;54.60;;;2.90;1.00;;;;;;5056647;28;20208;-86
2022/03/17 06:52:54;;;;;;;123.03;49.57;;;3.00;1.00;;;;;;5057306;28;20189;-87
2022/03/17 06:55:22;;;;;;;117.53;51.03;;;3.00;1.00;;;;;;5056984;28;20200;-86
2022/03/17 06:57:49;;;;;;;99.73;40.10;;;3.00;1.00;;;;;;5057091;28;20193;-88
2022/03/17 07:00:18;;;;;;;128.13;54.57;;;3.10;1.00;;;;;;5061744;28;20181;-87
2022/03/17 07:02:45;;;;;;;124.80;53.80;;;3.10;1.00;;;;;;5061192;28;20642;-87
2022/03/17 07:05:12;;;;;;;106.33;46.60;;;3.20;1.00;;;;;;5060351;28;20219;-87
2022/03/17 07:07:40;;;;;;;121.13;50.80;;;3.20;1.00;;;;;;5056007;28;20224;-87
2022/03/17 07:10:10;;;;;;;123.00;52.10;;;3.30;1.00;;;;;;5062173;28;20629;-86
2022/03/17 07:12:38;;;;;;;103.90;45.27;;;3.30;1.00;;;;;;5060603;28;20184;-88
2022/03/17 07:15:07;;;;;;;115.03;46.33;;;3.30;1.00;;;;;;5056470;28;20920;-88
2022/03/17 07:17:39;;;;;;;117.60;56.50;;;3.30;1.00;;;;;;5059768;28;20197;-87
2022/03/17 07:20:08;;;;;;;91.27;39.93;;;3.30;1.00;;;;;;5065827;28;20190;-86
2022/03/17 07:22:39;;;;;;;118.13;53.67;;;3.30;1.00;;;;;;5062974;28;20208;-90
2022/03/17 07:25:10;;;;;;;118.17;52.73;;;3.30;1.00;;;;;;5050595;28;20704;-87
2022/03/17 07:27:40;;;;;;;129.27;57.53;;;3.40;1.00;;;;;;5054317;28;20212;-86
2022/03/17 07:30:09;;;;;;;123.13;52.37;;;3.40;1.00;;;;;;5059912;28;20188;-88
2022/03/17 07:32:36;;;;;;;122.23;53.60;;;3.50;1.00;;;;;;5041614;28;20220;-88
2022/03/17 07:35:03;;;;;;;109.10;49.10;;;3.50;1.00;;;;;;5054881;28;20258;-86
2022/03/17 07:37:34;;;;;;;118.73;53.53;;;3.60;1.00;;;;;;5062521;28;20256;-86
2022/03/17 07:40:01;;;;;;;116.37;51.70;;;3.70;1.00;;;;;;5060610;28;20196;-87
2022/03/17 07:42:29;;;;;;;118.33;51.57;;;3.70;1.00;;;;;;5059527;28;20247;-86
2022/03/17 07:44:56;;;;;;;103.60;51.43;;;3.80;99.90;;;;;;5058821;28;20195;-87
2022/03/17 07:47:23;;;;;;;110.73;52.03;;;3.90;99.90;;;;;;5060765;28;20286;-87
2022/03/17 07:49:52;;;;;;;105.80;50.80;;;4.00;99.90;;;;;;5059978;28;20208;-88
2022/03/17 07:52:20;;;;;;;108.53;49.90;;;4.10;99.90;;;;;;5054583;28;20658;-87
2022/03/17 07:54:47;;;;;;;105.97;49.83;;;4.20;55.20;;;;;;5055861;28;20253;-90
2022/03/17 07:57:14;;;;;;;103.10;48.47;;;4.30;1.00;;;;;;5056824;28;20205;-88
2022/03/17 07:59:43;;;;;;;97.63;48.10;;;4.40;1.00;;;;;;5057829;28;20203;-88
2022/03/17 08:02:16;;;;;;;97.20;47.07;;;4.50;1.00;;;;;;5055464;28;20212;-88
2022/03/17 08:04:47;;;;;;;99.13;48.20;;;4.60;99.90;;;;;;5055404;28;20200;-89
2022/03/17 08:07:15;;;;;;;95.00;47.33;;;4.70;99.90;;;;;;5043744;28;20211;-88
2022/03/17 08:09:42;;;;;;;96.87;46.70;;;4.80;99.90;;;;;;5060240;28;20525;-87
2022/03/17 08:12:12;;;;;;;92.60;49.57;;;4.90;65.30;;;;;;5059243;28;20192;-88
2022/03/17 08:14:39;;;;;;;93.93;46.93;;;5.00;99.90;;;;;;5058885;28;20311;-90
2022/03/17 08:17:09;;;;;;;92.10;46.03;;;5.10;63.50;;;;;;5057134;28;20259;-90
2022/03/17 08:19:39;;;;;;;90.87;45.87;;;5.20;1.00;;;;;;5061498;28;20238;-90
2022/03/17 08:22:09;;;;;;;91.73;46.53;;;5.30;1.00;;;;;;5058336;28;20270;-88
2022/03/17 08:24:36;;;;;;;83.27;44.30;;;5.40;1.00;;;;;;5063527;28;20232;-89
2022/03/17 08:27:07;;;;;;;88.37;44.67;;;5.50;1.00;;;;;;5064376;28;20314;-90
2022/03/17 08:29:38;;;;;;;88.37;43.23;;;5.70;1.00;;;;;;5060776;28;20192;-92
2022/03/17 08:32:11;;;;;;;82.63;43.33;;;5.90;1.00;;;;;;5063349;28;20200;-88
2022/03/17 08:34:38;;;;;;;85.37;43.80;;;6.00;1.00;;;;;;5061856;28;20235;-91
2022/03/17 08:37:09;;;;;;;89.77;43.90;;;6.10;1.00;;;;;;5066506;28;20209;-94
2022/03/17 08:39:37;;;;;;;91.00;45.47;;;6.30;99.90;;;;;;5067091;28;20190;-91
2022/03/17 08:42:04;;;;;;;83.60;43.20;;;6.40;99.90;;;;;;5065917;28;20200;-92
2022/03/17 08:44:32;;;;;;;86.10;44.60;;;6.50;99.90;;;;;;5064885;28;20710;-88
2022/03/17 08:49:45;;;;;;;84.73;43.10;;;6.70;1.00;;;;;;5061035;28;20617;-90
2022/03/17 08:52:12;;;;;;;87.30;45.57;;;6.70;1.00;;;;;;5059583;28;20552;-90
2022/03/17 08:54:39;;;;;;;82.83;44.63;;;6.80;1.00;;;;;;5058616;28;20649;-89
2022/03/17 08:57:06;;;;;;;87.77;45.60;;;7.00;1.00;;;;;;5061316;28;20199;-89
2022/03/17 08:59:34;;;;;;;87.50;46.13;;;7.00;1.00;;;;;;5057357;28;20203;-90
2022/03/17 09:02:04;;;;;;;84.97;46.17;;;7.10;1.00;;;;;;5059081;28;20198;-88
2022/03/17 09:04:35;;;;;;;87.47;45.17;;;7.30;1.00;;;;;;5058171;28;20233;-87
2022/03/17 09:07:05;;;;;;;80.00;43.87;;;7.40;1.00;;;;;;5056047;28;20189;-89
2022/03/17 09:09:33;;;;;;;82.03;43.83;;;7.50;99.90;;;;;;5057054;28;20277;-90
2022/03/17 09:12:05;;;;;;;79.57;43.63;;;7.60;99.90;;;;;;5063916;28;20199;-91
2022/03/17 09:14:33;;;;;;;81.90;44.73;;;7.60;99.90;;;;;;5059316;28;20591;-91
2022/03/17 09:48:55;;;;;;;84.83;48.30;;;8.00;1.00;;;;;;5024317;28;20239;-89
2022/03/17 09:51:54;;;;;;;86.80;47.97;;;8.00;1.00;;;;;;5037663;28;20258;-91
2022/03/17 09:57:41;;;;;;;85.63;46.60;;;8.00;1.00;;;;;;5040301;28;20211;-93
2022/03/17 10:00:11;;;;;;;89.20;45.83;;;8.10;1.00;;;;;;5040432;28;20568;-90
2022/03/17 10:02:41;;;;;;;89.00;48.23;;;8.10;1.00;;;;;;5041576;28;20208;-89
2022/03/17 10:05:11;;;;;;;88.63;50.70;;;8.20;1.00;;;;;;5038750;28;20245;-90
2022/03/17 10:07:39;;;;;;;92.03;49.27;;;8.20;1.00;;;;;;5038743;28;20619;-90
2022/03/17 10:10:11;;;;;;;89.73;47.90;;;8.20;1.00;;;;;;5036926;28;20219;-89
2022/03/17 10:12:40;;;;;;;92.53;48.97;;;8.20;1.00;;;;;;5038190;28;20224;-90
2022/03/17 10:15:19;;;;;;;87.20;50.90;;;8.20;1.00;;;;;;5045384;28;20260;-93
2022/03/17 10:17:46;;;;;;;90.40;47.20;;;8.30;1.00;;;;;;5055465;28;20208;-89
2022/03/17 10:20:16;;;;;;;87.90;49.40;;;8.30;1.00;;;;;;5056630;28;20189;-89
2022/03/17 10:22:45;;;;;;;90.83;49.00;;;8.40;1.00;;;;;;5055830;28;20204;-89
2022/03/17 10:25:20;;;;;;;83.53;47.43;;;8.50;1.00;;;;;;5056955;28;20219;-90
2022/03/17 10:27:50;;;;;;;90.03;49.70;;;8.50;1.00;;;;;;5054875;28;20205;-90
2022/03/17 10:30:23;;;;;;;85.70;49.23;;;8.60;1.00;;;;;;5056179;28;20194;-90
2022/03/17 10:32:57;;;;;;;94.53;51.00;;;8.70;1.00;;;;;;5056400;28;20209;-89
2022/03/17 10:35:34;;;;;;;89.97;50.20;;;8.70;99.90;;;;;;5055654;28;20600;-90
2022/03/17 10:38:12;;;;;;;90.23;50.40;;;8.80;1.00;;;;;;5059340;28;20263;-91
2022/03/17 10:40:40;;;;;;;91.23;52.10;;;8.90;99.90;;;;;;5057764;28;21071;-89
2022/03/17 10:43:22;;;;;;;88.40;50.67;;;9.00;99.90;;;;;;5062047;28;20181;-88
2022/03/17 10:46:03;;;;;;;88.73;50.07;;;9.00;99.90;;;;;;5060257;28;20186;-91
2022/03/17 10:48:30;;;;;;;81.23;46.47;;;9.10;99.90;;;;;;5061159;28;20220;-91
2022/03/17 10:51:03;;;;;;;85.03;49.53;;;9.10;99.90;;;;;;5063037;28;20252;-93
2022/03/17 10:53:34;;;;;;;84.00;48.13;;;9.10;99.90;;;;;;5061350;28;20166;-91
2022/03/17 10:56:15;;;;;;;84.40;48.13;;;9.10;99.90;;;;;;5060412;28;20202;-88
2022/03/17 10:58:46;;;;;;;88.27;48.80;;;9.00;99.90;;;;;;5057997;28;20294;-90
2022/03/17 11:01:13;;;;;;;86.70;49.00;;;9.10;99.90;;;;;;5064477;28;20263;-90
2022/03/17 11:03:41;;;;;;;86.97;48.90;;;9.10;99.90;;;;;;5063011;28;20190;-89
2022/03/17 11:06:09;;;;;;;87.37;48.40;;;9.20;99.90;;;;;;5060655;28;20199;-89
2022/03/17 11:08:46;;;;;;;90.13;50.33;;;9.20;99.90;;;;;;5057409;28;20224;-92
2022/03/17 11:11:14;;;;;;;91.30;50.93;;;9.30;99.90;;;;;;5060916;28;20199;-92
2022/03/17 11:13:42;;;;;;;84.60;49.43;;;9.30;99.90;;;;;;5059832;28;20200;-88
2022/03/17 11:16:12;;;;;;;83.53;48.53;;;9.30;99.90;;;;;;5055876;28;20240;-90
2022/03/17 11:18:43;;;;;;;86.20;47.13;;;9.40;99.90;;;;;;5056824;28;20195;-89
2022/03/17 11:21:13;;;;;;;88.87;50.40;;;9.40;99.90;;;;;;5057714;28;20189;-89
2022/03/17 11:23:55;;;;;;;85.00;49.27;;;9.50;99.90;;;;;;5054888;28;20719;-88
2022/03/17 11:26:25;;;;;;;84.50;48.90;;;9.50;99.90;;;;;;5036825;28;20196;-87
2022/03/17 11:29:03;;;;;;;80.83;48.60;;;9.50;99.90;;;;;;5036245;28;20216;-88
2022/03/17 11:31:53;;;;;;;83.97;48.17;;;9.60;99.90;;;;;;5036549;28;20289;-89
2022/03/17 11:34:38;;;;;;;86.57;47.03;;;9.70;99.90;;;;;;5051942;28;20670;-89
2022/03/17 11:37:17;;;;;;;82.40;46.37;;;9.70;99.90;;;;;;5053217;28;20243;-89
2022/03/17 11:39:54;;;;;;;83.33;47.77;;;9.80;99.90;;;;;;5054512;28;20220;-93
2022/03/17 11:42:42;;;;;;;85.67;48.03;;;9.90;99.90;;;;;;5054332;28;20188;-90
2022/03/17 11:45:37;;;;;;;80.63;47.17;;;9.90;99.90;;;;;;5055035;28;20287;-91
2022/03/17 11:48:15;;;;;;;83.47;46.47;;;10.00;99.90;;;;;;5055976;28;20194;-90
2022/03/17 11:50:50;;;;;;;86.43;48.33;;;10.00;99.90;;;;;;5058463;28;20294;-89
2022/03/17 11:53:24;;;;;;;82.10;45.80;;;10.10;99.90;;;;;;5057919;28;20208;-88
2022/03/17 11:55:54;;;;;;;80.83;47.33;;;10.10;99.90;;;;;;5057430;28;20184;-91
2022/03/17 11:58:42;;;;;;;87.13;48.40;;;10.10;99.90;;;;;;5059234;28;20175;-90
2022/03/17 12:01:13;;;;;;;82.83;45.00;;;10.10;99.90;;;;;;5060176;28;20196;-90
2022/03/17 12:03:49;;;;;;;82.33;46.03;;;10.20;99.90;;;;;;5055071;28;20238;-88
2022/03/17 12:06:20;;;;;;;76.83;45.30;;;10.20;94.00;;;;;;5060905;28;20203;-89
2022/03/17 12:08:55;;;;;;;76.07;44.07;;;10.20;89.10;;;;;;5066215;28;20220;-88
2022/03/17 12:11:24;;;;;;;77.70;44.03;;;10.30;57.40;;;;;;5062604;28;20659;-88
2022/03/17 12:14:25;;;;;;;74.30;42.10;;;10.30;44.00;;;;;;5066347;28;20267;-89
2022/03/17 12:16:55;;;;;;;78.20;46.93;;;10.30;12.30;;;;;;5004587;28;20186;-91
2022/03/17 12:19:27;;;;;;;76.57;43.57;;;10.30;3.90;;;;;;5002657;28;20726;-87
2022/03/17 12:22:11;;;;;;;71.53;43.70;;;10.30;1.00;;;;;;5029820;28;20193;-89
2022/03/17 12:24:41;;;;;;;69.43;42.03;;;10.40;1.00;;;;;;5062959;28;20184;-87
2022/03/17 12:27:15;;;;;;;67.87;39.77;;;10.50;1.00;;;;;;5056721;28;20232;-91
2022/03/17 12:29:43;;;;;;;70.63;41.47;;;10.50;1.00;;;;;;5064257;28;20194;-87
2022/03/17 12:32:14;;;;;;;69.17;42.23;;;10.50;1.00;;;;;;5053989;28;20576;-90
2022/03/17 12:34:47;;;;;;;69.67;40.10;;;10.60;1.00;;;;;;5063038;28;20181;-90
2022/03/17 12:37:14;;;;;;;66.83;41.40;;;10.60;1.00;;;;;;5066400;28;20230;-89
2022/03/17 12:39:43;;;;;;;63.50;39.60;;;10.60;1.00;;;;;;5066098;28;20200;-92
2022/03/17 12:42:17;;;;;;;65.80;37.93;;;10.60;1.00;;;;;;5058528;28;20202;-89
2022/03/17 12:45:00;;;;;;;59.93;35.53;;;10.60;1.00;;;;;;5063321;28;20192;-88
2022/03/17 12:47:30;;;;;;;65.37;37.93;;;10.60;1.00;;;;;;5057987;28;20212;-87
2022/03/17 12:49:58;;;;;;;63.03;38.47;;;10.60;1.00;;;;;;5059238;28;20209;-87
2022/03/17 12:52:28;;;;;;;64.50;37.97;;;10.70;1.00;;;;;;5061821;28;20238;-88
2022/03/17 12:54:58;;;;;;;68.20;38.23;;;10.70;1.00;;;;;;5063239;28;20194;-87
2022/03/17 12:57:29;;;;;;;58.57;35.30;;;10.70;1.00;;;;;;5059123;28;20208;-90
2022/03/17 12:59:57;;;;;;;61.67;38.57;;;10.70;1.00;;;;;;5060265;28;20269;-88
2022/03/17 13:02:24;;;;;;;63.97;37.20;;;10.80;1.00;;;;;;5059234;28;20188;-88
2022/03/17 13:04:55;;;;;;;54.90;34.17;;;10.80;1.00;;;;;;5057565;28;20199;-86
2022/03/17 13:07:24;;;;;;;62.90;37.17;;;10.80;1.00;;;;;;5057735;28;20200;-88
2022/03/17 13:09:51;;;;;;;61.30;36.43;;;10.80;1.00;;;;;;5056407;28;20213;-86
2022/03/17 13:15:10;;;;;;;57.97;34.30;;;10.90;1.00;;;;;;5038122;28;20181;-86
2022/03/17 13:17:39;;;;;;;72.83;48.23;;;10.90;1.00;;;;;;5037960;28;20185;-89
2022/03/17 13:20:25;;;;;;;71.90;45.13;;;10.90;1.00;;;;;;5036519;28;20205;-88
2022/03/17 13:23:00;;;;;;;56.13;33.30;;;10.90;1.00;;;;;;5052727;28;20220;-89
2022/03/17 13:25:28;;;;;;;56.50;34.30;;;10.90;1.00;;;;;;5061310;28;20199;-88
2022/03/17 13:28:02;;;;;;;52.63;33.27;;;10.90;1.00;;;;;;5061765;28;20204;-91
2022/03/17 13:30:31;;;;;;;55.23;34.10;;;11.00;1.00;;;;;;5046485;28;20263;-87
2022/03/17 13:33:00;;;;;;;50.43;31.13;;;11.00;1.00;;;;;;5041960;28;20188;-87
2022/03/17 13:35:31;;;;;;;57.07;32.90;;;11.00;1.00;;;;;;5041651;28;20202;-88
2022/03/17 13:38:11;;;;;;;53.90;31.33;;;11.00;1.00;;;;;;5047095;28;20273;-89
2022/03/17 13:40:44;;;;;;;47.43;29.73;;;11.10;1.00;;;;;;5036916;28;20252;-83
2022/03/17 13:43:11;;;;;;;50.93;29.93;;;11.10;1.00;;;;;;5042502;28;20272;-85